createdAt,value
2018-09-15T00:00:31.295Z,86.20
2018-09-15T00:02:59.493Z,86.50
2018-09-15T00:05:27.696Z,86.70
2018-09-15T00:07:55.902Z,86.90
2018-09-15T00:10:24.139Z,87.10
2018-09-15T00:12:52.359Z,87.20
2018-09-15T00:15:20.691Z,87.10
2018-09-15T00:17:49.332Z,87.10
2018-09-15T00:20:17.564Z,87.10
2018-09-15T00:22:45.750Z,87.30
2018-09-15T00:25:13.964Z,87.30
2018-09-15T00:27:42.174Z,87.30
2018-09-15T00:30:10.369Z,87.30
2018-09-15T00:32:38.559Z,87.50
2018-09-15T00:35:07.027Z,87.80
2018-09-15T00:37:35.218Z,87.90
2018-09-15T00:40:03.456Z,88.30
2018-09-15T00:42:31.631Z,88.40
2018-09-15T00:44:59.945Z,88.50
2018-09-15T00:47:28.086Z,88.70
2018-09-15T00:49:56.310Z,89.00
2018-09-15T00:52:24.582Z,89.20
2018-09-15T00:54:53.701Z,89.70
2018-09-15T00:57:21.975Z,90.00
2018-09-15T00:59:50.122Z,90.30
2018-09-15T01:02:18.378Z,90.30
2018-09-15T01:04:46.624Z,90.50
2018-09-15T01:07:14.805Z,90.70
2018-09-15T01:09:43.017Z,90.60
2018-09-15T01:12:11.181Z,90.70
2018-09-15T01:14:39.381Z,90.80
2018-09-15T01:17:07.668Z,90.90
2018-09-15T01:19:35.922Z,91.00
2018-09-15T01:22:04.193Z,91.00
2018-09-15T01:24:32.426Z,90.90
2018-09-15T01:27:00.865Z,90.80
2018-09-15T01:29:29.479Z,90.80
2018-09-15T01:31:57.873Z,90.50
2018-09-15T01:35:58.138Z,90.30
2018-09-15T01:38:26.350Z,90.10
2018-09-15T01:40:54.508Z,89.50
2018-09-15T01:43:23.927Z,89.20
2018-09-15T01:45:52.136Z,88.70
2018-09-15T01:48:20.345Z,88.20
2018-09-15T01:50:48.566Z,87.80
2018-09-15T01:53:16.817Z,88.00
2018-09-15T02:00:38.724Z,86.80
2018-09-15T02:03:07.034Z,86.00
2018-09-15T02:05:35.344Z,86.00
2018-09-15T02:08:03.537Z,85.60
2018-09-15T02:10:31.825Z,85.60
2018-09-15T02:17:53.209Z,85.50
2018-09-15T02:20:21.548Z,86.30
2018-09-15T02:22:49.805Z,86.50
2018-09-15T02:25:17.894Z,86.80
2018-09-15T02:27:46.160Z,86.80
2018-09-15T02:35:07.211Z,86.40
2018-09-15T02:37:35.347Z,87.60
2018-09-15T02:40:03.542Z,87.00
2018-09-15T02:42:31.725Z,87.10
2018-09-15T02:44:59.937Z,86.90
2018-09-15T02:47:28.116Z,86.50
2018-09-15T02:49:56.277Z,86.50
2018-09-15T02:52:24.489Z,86.40
2018-09-15T02:54:52.829Z,86.40
2018-09-15T02:57:20.859Z,86.60
2018-09-15T02:59:49.574Z,86.70
2018-09-15T03:02:17.737Z,87.10
2018-09-15T03:04:45.899Z,87.40
2018-09-15T03:07:14.053Z,87.50
2018-09-15T03:09:42.213Z,87.50
2018-09-15T03:12:10.370Z,87.10
2018-09-15T03:14:38.568Z,87.60
2018-09-15T03:17:06.968Z,87.60
2018-09-15T03:19:35.193Z,87.90
2018-09-15T03:22:03.461Z,89.00
2018-09-15T03:24:31.645Z,88.10
2018-09-15T03:26:59.829Z,88.00
2018-09-15T03:29:27.995Z,87.80
2018-09-15T03:31:56.328Z,88.30
2018-09-15T03:34:24.618Z,87.90
2018-09-15T03:36:52.854Z,88.20
2018-09-15T03:39:21.027Z,88.50
2018-09-15T03:41:49.202Z,88.80
2018-09-15T03:44:17.373Z,89.10
2018-09-15T03:46:45.563Z,88.90
2018-09-15T03:49:13.841Z,88.80
2018-09-15T03:51:41.986Z,89.00
2018-09-15T03:54:14.372Z,89.10
2018-09-15T03:56:42.530Z,89.40
2018-09-15T03:59:10.709Z,90.00
2018-09-15T04:01:38.892Z,90.10
2018-09-15T04:04:07.076Z,90.00
2018-09-15T04:06:35.392Z,90.20
2018-09-15T04:09:03.694Z,90.20
2018-09-15T04:11:31.864Z,90.40
2018-09-15T04:14:00.003Z,90.30
2018-09-15T04:16:28.162Z,90.20
2018-09-15T04:18:56.309Z,90.40
2018-09-15T04:21:24.479Z,90.40
2018-09-15T04:23:52.699Z,90.60
2018-09-15T04:26:20.885Z,90.70
2018-09-15T04:28:49.084Z,90.80
2018-09-15T04:31:17.273Z,91.00
2018-09-15T04:33:45.586Z,91.10
2018-09-15T04:36:13.863Z,91.10
2018-09-15T04:38:42.138Z,91.10
2018-09-15T04:41:10.617Z,91.00
2018-09-15T04:43:38.807Z,91.20
2018-09-15T04:46:07.058Z,91.40
2018-09-15T04:48:35.215Z,91.50
2018-09-15T04:51:03.420Z,91.50
2018-09-15T04:53:31.626Z,91.50
2018-09-15T04:55:59.864Z,91.60
2018-09-15T04:58:28.051Z,91.60
2018-09-15T05:00:56.207Z,91.50
2018-09-15T05:03:24.392Z,91.50
2018-09-15T05:05:52.528Z,91.50
2018-09-15T05:08:20.804Z,91.50
2018-09-15T05:10:49.183Z,91.50
2018-09-15T05:13:17.387Z,91.70
2018-09-15T05:15:45.992Z,91.80
2018-09-15T05:18:14.170Z,91.80
2018-09-15T05:20:42.390Z,91.80
2018-09-15T05:23:10.575Z,91.90
2018-09-15T05:25:38.758Z,91.90
2018-09-15T05:28:06.904Z,91.90
2018-09-15T05:30:35.150Z,91.90
2018-09-15T05:33:03.343Z,91.70
2018-09-15T05:35:31.595Z,91.60
2018-09-15T05:37:59.731Z,91.60
2018-09-15T05:40:28.026Z,91.60
2018-09-15T05:42:56.298Z,91.50
2018-09-15T05:45:24.485Z,91.60
2018-09-15T05:47:52.917Z,91.50
2018-09-15T05:50:22.463Z,91.40
2018-09-15T05:52:50.893Z,91.40
2018-09-15T05:55:19.326Z,91.40
2018-09-15T05:57:47.539Z,91.20
2018-09-15T06:00:15.725Z,91.20
2018-09-15T06:02:43.867Z,91.00
2018-09-15T06:05:12.069Z,90.90
2018-09-15T06:07:40.220Z,90.60
2018-09-15T06:10:08.432Z,90.50
2018-09-15T06:12:36.707Z,90.40
2018-09-15T06:15:05.069Z,90.10
2018-09-15T06:17:33.257Z,90.10
2018-09-15T06:20:01.469Z,89.90
2018-09-15T06:22:29.662Z,89.90
2018-09-15T06:24:57.851Z,89.60
2018-09-15T06:27:26.190Z,89.20
2018-09-15T06:29:54.348Z,89.80
2018-09-15T06:32:22.489Z,88.90
2018-09-15T06:34:50.639Z,88.50
2018-09-15T06:37:18.800Z,88.10
2018-09-15T06:39:47.012Z,87.70
2018-09-15T06:42:15.237Z,87.20
2018-09-15T06:44:43.573Z,87.80
2018-09-15T06:47:11.739Z,86.50
2018-09-15T06:49:39.917Z,86.10
2018-09-15T06:52:08.149Z,85.50
2018-09-15T06:54:36.596Z,85.20
2018-09-15T06:57:04.731Z,84.80
2018-09-15T06:59:32.969Z,84.30
2018-09-15T07:02:01.171Z,84.40
2018-09-15T07:04:29.396Z,84.30
2018-09-15T07:06:57.606Z,84.10
2018-09-15T07:09:25.840Z,83.70
2018-09-15T07:11:53.993Z,83.90
2018-09-15T07:14:22.139Z,83.80
2018-09-15T07:16:50.402Z,83.30
2018-09-15T07:19:18.610Z,83.40
2018-09-15T07:21:46.776Z,82.70
2018-09-15T07:24:14.941Z,82.60
2018-09-15T07:26:43.138Z,82.30
2018-09-15T07:29:11.322Z,82.00
2018-09-15T07:31:39.511Z,82.00
2018-09-15T07:34:07.747Z,81.10
2018-09-15T07:36:35.962Z,80.20
2018-09-15T07:39:06.257Z,78.60
2018-09-15T07:41:34.464Z,78.20
2018-09-15T07:44:02.671Z,76.80
2018-09-15T07:46:30.939Z,76.70
2018-09-15T07:48:59.188Z,77.30
2018-09-15T07:51:27.635Z,77.50
2018-09-15T07:53:55.939Z,77.70
2018-09-15T07:56:24.156Z,77.70
2018-09-15T07:58:52.429Z,77.30
2018-09-15T08:01:20.564Z,76.70
2018-09-15T08:03:48.918Z,76.10
2018-09-15T08:06:17.425Z,76.30
2018-09-15T08:08:45.924Z,76.00
2018-09-15T08:11:14.384Z,75.20
2018-09-15T08:13:42.888Z,70.10
2018-09-15T08:16:11.138Z,68.90
2018-09-15T08:18:39.434Z,65.70
2018-09-15T08:21:07.683Z,62.90
2018-09-15T08:23:35.994Z,60.10
2018-09-15T08:26:04.337Z,57.60
2018-09-15T08:28:32.585Z,55.20
2018-09-15T08:31:00.929Z,53.60
2018-09-15T08:33:29.155Z,53.40
2018-09-15T08:35:57.296Z,50.90
2018-09-15T08:38:25.640Z,51.10
2018-09-15T08:40:53.851Z,49.90
2018-09-15T08:43:21.992Z,47.70
2018-09-15T08:45:51.616Z,48.20
2018-09-15T08:48:19.832Z,47.30
2018-09-15T08:50:47.995Z,47.20
2018-09-15T08:53:16.213Z,46.00
2018-09-15T08:55:44.506Z,46.20
2018-09-15T08:58:12.821Z,47.70
2018-09-15T09:00:41.026Z,46.70
2018-09-15T09:03:11.333Z,45.60
2018-09-15T09:05:39.580Z,43.40
2018-09-15T09:08:12.387Z,45.20
2018-09-15T09:10:40.699Z,48.30
2018-09-15T09:13:08.996Z,52.40
2018-09-15T09:15:37.378Z,55.50
2018-09-15T09:18:05.609Z,58.20
2018-09-15T09:20:33.885Z,60.20
2018-09-15T09:23:02.066Z,61.10
2018-09-15T09:25:30.248Z,63.00
2018-09-15T09:27:58.443Z,64.60
2018-09-15T09:30:26.616Z,65.70
2018-09-15T09:32:54.807Z,66.70
2018-09-15T09:35:23.134Z,67.90
2018-09-15T09:37:51.399Z,67.90
2018-09-15T09:40:20.328Z,68.90
2018-09-15T09:42:48.520Z,69.50
2018-09-15T09:45:16.818Z,68.70
2018-09-15T09:47:45.046Z,67.70
2018-09-15T09:50:13.252Z,67.20
2018-09-15T09:52:41.457Z,65.30
2018-09-15T09:55:09.654Z,60.10
2018-09-15T09:57:37.838Z,55.20
2018-09-15T10:00:06.116Z,52.70
2018-09-15T10:02:34.384Z,52.50
2018-09-15T10:05:02.536Z,52.70
2018-09-15T10:07:30.765Z,54.20
2018-09-15T10:09:58.969Z,56.80
2018-09-15T10:12:27.169Z,58.80
2018-09-15T10:14:55.406Z,61.10
2018-09-15T10:17:23.841Z,64.40
2018-09-15T10:19:52.303Z,65.50
2018-09-15T10:22:25.205Z,66.90
2018-09-15T10:24:53.416Z,69.00
2018-09-15T10:27:21.594Z,69.90
2018-09-15T10:29:49.769Z,70.40
2018-09-15T10:32:17.986Z,69.90
2018-09-15T10:34:46.182Z,68.50
2018-09-15T10:37:14.318Z,65.90
2018-09-15T10:39:42.484Z,66.20
2018-09-15T10:42:10.762Z,66.00
2018-09-15T10:44:39.004Z,63.30
2018-09-15T10:47:07.152Z,62.90
2018-09-15T10:49:35.358Z,64.40
2018-09-15T10:52:03.559Z,65.30
2018-09-15T10:54:31.774Z,65.20
2018-09-15T10:56:59.915Z,64.20
2018-09-15T10:59:28.188Z,63.70
2018-09-15T11:01:56.398Z,63.20
2018-09-15T11:04:24.659Z,62.40
2018-09-15T11:06:52.877Z,61.10
2018-09-15T11:09:21.023Z,61.40
2018-09-15T11:11:49.190Z,60.00
2018-09-15T11:14:17.382Z,59.70
2018-09-15T11:16:45.618Z,58.00
2018-09-15T11:19:13.772Z,59.00
2018-09-15T11:21:41.935Z,60.20
2018-09-15T11:24:10.094Z,61.70
2018-09-15T11:26:38.250Z,63.00
2018-09-15T11:29:06.551Z,64.70
2018-09-15T11:31:34.713Z,65.70
2018-09-15T11:34:02.933Z,67.10
2018-09-15T11:36:31.068Z,68.20
2018-09-15T11:38:59.486Z,67.90
2018-09-15T11:41:27.935Z,67.50
2018-09-15T11:43:56.128Z,68.00
2018-09-15T11:46:24.278Z,68.20
2018-09-15T11:48:52.463Z,67.60
2018-09-15T11:51:20.670Z,67.10
2018-09-15T11:53:48.894Z,66.50
2018-09-15T11:56:17.057Z,65.20
2018-09-15T11:58:45.239Z,64.60
2018-09-15T12:01:13.387Z,64.70
2018-09-15T12:03:41.546Z,62.60
2018-09-15T12:06:09.937Z,62.00
2018-09-15T12:08:38.269Z,62.20
2018-09-15T12:11:06.464Z,61.00
2018-09-15T12:13:34.845Z,59.30
2018-09-15T12:16:03.353Z,58.50
2018-09-15T12:18:31.681Z,57.90
2018-09-15T12:20:59.906Z,57.70
2018-09-15T12:23:28.121Z,58.30
2018-09-15T12:25:57.229Z,57.30
2018-09-15T12:28:25.410Z,58.30
2018-09-15T12:30:53.638Z,59.50
2018-09-15T12:33:21.846Z,58.60
2018-09-15T12:35:49.962Z,57.60
2018-09-15T12:38:18.086Z,57.60
2018-09-15T12:40:46.247Z,57.00
2018-09-15T12:43:14.446Z,54.00
2018-09-15T12:45:42.766Z,53.80
2018-09-15T12:48:11.074Z,54.20
2018-09-15T12:50:39.351Z,54.40
2018-09-15T12:53:07.621Z,54.50
2018-09-15T12:55:35.925Z,53.80
2018-09-15T12:58:04.096Z,54.20
2018-09-15T13:00:32.288Z,54.40
2018-09-15T13:03:00.488Z,54.60
2018-09-15T13:05:28.745Z,54.60
2018-09-15T13:07:57.255Z,55.00
2018-09-15T13:10:25.408Z,55.40
2018-09-15T13:12:53.611Z,54.60
2018-09-15T13:15:21.755Z,54.50
2018-09-15T13:17:50.000Z,53.90
2018-09-15T13:20:18.868Z,53.40
2018-09-15T13:22:47.328Z,53.80
2018-09-15T13:25:15.543Z,53.60
2018-09-15T13:27:43.776Z,54.10
2018-09-15T13:30:12.053Z,54.70
2018-09-15T13:32:40.411Z,54.60
2018-09-15T13:35:08.790Z,54.80
2018-09-15T13:37:37.001Z,54.80
2018-09-15T13:40:05.166Z,55.30
2018-09-15T13:42:33.636Z,55.70
2018-09-15T13:45:02.110Z,56.70
2018-09-15T13:47:30.949Z,57.60
2018-09-15T13:49:59.384Z,58.30
2018-09-15T13:52:28.622Z,58.20
2018-09-15T13:54:56.819Z,58.10
2018-09-15T13:57:25.672Z,57.90
2018-09-15T13:59:53.857Z,58.40
2018-09-15T14:02:22.707Z,58.80
2018-09-15T14:04:51.013Z,59.00
2018-09-15T14:07:19.110Z,59.00
2018-09-15T14:09:47.339Z,59.00
2018-09-15T14:12:15.510Z,59.60
2018-09-15T14:14:44.216Z,59.30
2018-09-15T14:17:12.374Z,59.50
2018-09-15T14:19:40.607Z,58.90
2018-09-15T14:22:08.870Z,59.20
2018-09-15T14:24:37.001Z,58.90
2018-09-15T14:27:05.210Z,58.90
2018-09-15T14:29:33.510Z,58.40
2018-09-15T14:32:01.776Z,58.40
2018-09-15T14:34:31.843Z,58.20
2018-09-15T14:37:00.587Z,58.70
2018-09-15T14:39:28.921Z,57.60
2018-09-15T14:41:57.775Z,57.70
2018-09-15T14:44:25.885Z,57.90
2018-09-15T14:46:54.075Z,57.20
2018-09-15T14:49:22.267Z,57.80
2018-09-15T14:51:50.461Z,57.30
2018-09-15T14:54:18.641Z,57.80
2018-09-15T14:56:53.483Z,58.10
2018-09-15T14:59:21.715Z,57.30
2018-09-15T15:01:50.011Z,58.50
2018-09-15T15:04:18.178Z,57.60
2018-09-15T15:06:46.363Z,57.60
2018-09-15T15:09:14.531Z,57.70
2018-09-15T15:11:42.849Z,58.80
2018-09-15T15:14:11.042Z,59.00
2018-09-15T15:16:39.284Z,59.50
2018-09-15T15:19:07.917Z,59.50
2018-09-15T15:21:36.054Z,59.20
2018-09-15T15:24:04.211Z,59.50
2018-09-15T15:26:33.532Z,59.10
2018-09-15T15:29:01.754Z,59.10
2018-09-15T15:31:29.991Z,59.40
2018-09-15T15:33:58.130Z,59.20
2018-09-15T15:36:26.301Z,59.30
2018-09-15T15:38:54.462Z,59.50
2018-09-15T15:41:24.805Z,60.00
2018-09-15T15:43:53.111Z,61.30
2018-09-15T15:46:21.626Z,60.50
2018-09-15T15:48:50.193Z,61.90
2018-09-15T15:51:18.769Z,62.80
2018-09-15T15:53:47.257Z,63.30
2018-09-15T15:56:16.839Z,63.50
2018-09-15T15:58:45.465Z,63.00
2018-09-15T16:01:13.648Z,64.10
2018-09-15T16:03:41.832Z,62.20
2018-09-15T16:06:09.985Z,62.30
2018-09-15T16:08:38.301Z,62.70
2018-09-15T16:11:06.523Z,62.80
2018-09-15T16:13:35.960Z,62.80
2018-09-15T16:16:04.176Z,62.40
2018-09-15T16:18:32.422Z,63.10
2018-09-15T16:21:00.629Z,63.30
2018-09-15T16:23:28.829Z,63.40
2018-09-15T16:25:58.215Z,63.40
2018-09-15T16:28:26.416Z,63.50
2018-09-15T16:30:54.631Z,63.60
2018-09-15T16:33:22.804Z,64.10
2018-09-15T16:35:51.004Z,64.40
2018-09-15T16:38:19.203Z,64.80
2018-09-15T16:40:47.401Z,65.30
2018-09-15T16:43:15.607Z,65.60
2018-09-15T16:45:43.792Z,66.00
2018-09-15T16:48:12.349Z,66.20
2018-09-15T16:50:40.510Z,66.80
2018-09-15T16:53:08.703Z,67.90
2018-09-15T16:55:37.192Z,68.10
2018-09-15T16:58:12.216Z,68.50
2018-09-15T17:00:40.384Z,68.00
2018-09-15T17:03:08.675Z,68.20
2018-09-15T17:05:36.814Z,68.00
2018-09-15T17:08:05.062Z,68.00
2018-09-15T17:10:33.277Z,68.20
2018-09-15T17:13:03.445Z,68.20
2018-09-15T17:15:31.717Z,68.00
2018-09-15T17:17:59.840Z,67.90
2018-09-15T17:20:28.024Z,68.10
2018-09-15T17:22:56.201Z,68.60
2018-09-15T17:25:24.389Z,68.80
2018-09-15T17:27:52.544Z,69.40
2018-09-15T17:30:20.805Z,70.50
2018-09-15T17:32:49.149Z,70.60
2018-09-15T17:35:17.456Z,70.90
2018-09-15T17:37:45.664Z,71.20
2018-09-15T17:40:13.937Z,71.70
2018-09-15T17:42:42.138Z,72.20
2018-09-15T17:45:10.333Z,72.70
2018-09-15T17:47:38.508Z,73.00
2018-09-15T17:50:06.660Z,73.50
2018-09-15T17:52:34.856Z,74.00
2018-09-15T17:55:03.193Z,74.50
2018-09-15T17:57:31.325Z,75.00
2018-09-15T17:59:59.450Z,75.70
2018-09-15T18:02:27.614Z,76.10
2018-09-15T18:04:55.932Z,76.60
2018-09-15T18:07:24.125Z,77.10
2018-09-15T18:09:52.363Z,77.50
2018-09-15T18:12:20.526Z,77.90
2018-09-15T18:14:55.471Z,78.40
2018-09-15T18:17:23.621Z,79.00
2018-09-15T18:19:51.809Z,79.20
2018-09-15T18:22:20.037Z,79.70
2018-09-15T18:24:48.237Z,80.10
2018-09-15T18:27:16.444Z,80.50
2018-09-15T18:29:44.620Z,80.70
2018-09-15T18:32:12.917Z,81.10
2018-09-15T18:34:41.184Z,81.40
2018-09-15T18:37:09.376Z,81.90
2018-09-15T18:39:37.620Z,82.20
2018-09-15T18:42:05.811Z,82.60
2018-09-15T18:44:33.997Z,82.90
2018-09-15T18:47:02.240Z,83.40
2018-09-15T18:49:31.103Z,83.60
2018-09-15T18:51:59.278Z,83.90
2018-09-15T18:54:27.459Z,85.00
2018-09-15T18:56:55.692Z,84.70
2018-09-15T18:59:23.904Z,85.20
2018-09-15T19:01:52.104Z,85.40
2018-09-15T19:04:20.245Z,85.80
2018-09-15T19:06:48.421Z,86.20
2018-09-15T19:09:16.626Z,86.50
2018-09-15T19:11:44.793Z,86.80
2018-09-15T19:14:12.971Z,87.10
2018-09-15T19:16:41.264Z,87.20
2018-09-15T19:19:09.441Z,87.40
2018-09-15T19:21:37.645Z,87.50
2018-09-15T19:24:05.842Z,87.50
2018-09-15T19:26:34.078Z,87.60
2018-09-15T19:29:02.262Z,87.90
2018-09-15T19:31:30.390Z,88.20
2018-09-15T19:33:58.558Z,88.40
2018-09-15T19:36:26.790Z,88.50
2018-09-15T19:38:55.094Z,88.60
2018-09-15T19:41:23.268Z,88.90
2018-09-15T19:43:51.455Z,89.10
2018-09-15T19:46:19.638Z,89.20
2018-09-15T19:48:47.805Z,89.30
2018-09-15T19:51:15.999Z,89.60
2018-09-15T19:53:44.239Z,89.80
2018-09-15T19:56:12.426Z,90.00
2018-09-15T19:58:40.666Z,90.00
2018-09-15T20:01:09.134Z,90.00
2018-09-15T20:03:37.390Z,90.00
2018-09-15T20:06:05.588Z,90.10
2018-09-15T20:08:33.709Z,90.20
2018-09-15T20:11:01.900Z,90.30
2018-09-15T20:13:30.060Z,90.40
2018-09-15T20:15:57.547Z,90.50
2018-09-15T20:18:24.796Z,90.50
2018-09-15T20:20:52.006Z,90.70
2018-09-15T20:23:20.213Z,90.80
2018-09-15T20:25:48.356Z,90.80
2018-09-15T20:28:16.701Z,90.70
2018-09-15T20:30:45.078Z,90.70
2018-09-15T20:33:13.405Z,90.80
2018-09-15T20:35:41.604Z,90.80
2018-09-15T20:38:09.864Z,90.80
2018-09-15T20:40:38.112Z,90.80
2018-09-15T20:43:06.398Z,91.00
2018-09-15T20:45:34.596Z,91.00
2018-09-15T20:48:02.944Z,91.00
2018-09-15T20:50:31.192Z,91.10
2018-09-15T20:52:59.334Z,91.00
2018-09-15T20:55:27.505Z,91.00
2018-09-15T20:57:55.707Z,91.10
2018-09-15T21:00:23.845Z,91.10
2018-09-15T21:02:51.989Z,91.10
2018-09-15T21:05:20.269Z,91.10
2018-09-15T21:07:48.468Z,91.60
2018-09-15T21:10:16.594Z,91.50
2018-09-15T21:12:44.910Z,91.60
2018-09-15T21:15:13.117Z,91.50
2018-09-15T21:17:41.330Z,91.50
2018-09-15T21:20:09.562Z,91.60
2018-09-15T21:22:37.931Z,91.60
2018-09-15T21:25:06.245Z,91.60
2018-09-15T21:27:34.424Z,91.60
2018-09-15T21:30:02.645Z,91.70
2018-09-15T21:32:31.818Z,91.90
2018-09-15T21:35:00.057Z,91.90
2018-09-15T21:37:28.247Z,92.00
2018-09-15T21:39:56.386Z,92.10
2018-09-15T21:42:24.597Z,92.20
2018-09-15T21:44:52.776Z,92.20
2018-09-15T21:47:21.000Z,92.30
2018-09-15T21:49:49.240Z,92.30
2018-09-15T21:52:17.515Z,92.20
2018-09-15T21:54:45.797Z,92.30
2018-09-15T21:57:14.014Z,92.20
2018-09-15T21:59:42.226Z,92.30
2018-09-15T22:02:10.406Z,92.40
2018-09-15T22:04:38.590Z,92.30
2018-09-15T22:07:06.908Z,92.20
2018-09-15T22:09:35.184Z,92.30
2018-09-15T22:12:03.347Z,92.70
2018-09-15T22:14:31.740Z,92.50
2018-09-15T22:16:59.916Z,92.90
2018-09-15T22:19:28.098Z,92.90
2018-09-15T22:21:56.369Z,92.90
2018-09-15T22:24:24.560Z,92.90
2018-09-15T22:26:52.820Z,92.80
2018-09-15T22:29:21.675Z,92.90
2018-09-15T22:31:50.541Z,93.00
2018-09-15T22:34:18.724Z,93.00
2018-09-15T22:36:46.989Z,93.20
2018-09-15T22:39:15.152Z,93.40
2018-09-15T22:41:43.372Z,93.40
2018-09-15T22:44:11.600Z,93.40
2018-09-15T22:46:39.856Z,93.40
2018-09-15T22:49:08.029Z,93.50
2018-09-15T22:51:36.205Z,93.60
2018-09-15T22:54:04.457Z,93.60
2018-09-15T22:56:32.922Z,93.40
2018-09-15T22:59:01.114Z,93.40
2018-09-15T23:01:29.401Z,93.30
2018-09-15T23:04:03.116Z,93.30
2018-09-15T23:06:31.362Z,93.20
2018-09-15T23:08:59.529Z,93.30
2018-09-15T23:11:27.789Z,93.30
2018-09-15T23:13:55.979Z,93.30
2018-09-15T23:16:24.203Z,93.30
2018-09-15T23:18:52.538Z,93.30
2018-09-15T23:21:20.767Z,93.20
2018-09-15T23:23:48.953Z,93.20
2018-09-15T23:26:17.202Z,93.20
2018-09-15T23:28:45.331Z,93.10
2018-09-15T23:31:13.596Z,93.20
2018-09-15T23:33:41.843Z,93.10
2018-09-15T23:36:10.106Z,93.00
2018-09-15T23:38:38.387Z,93.00
2018-09-15T23:41:06.745Z,93.10
2018-09-15T23:43:34.965Z,93.00
2018-09-15T23:46:03.353Z,93.20
2018-09-15T23:48:31.588Z,93.00
2018-09-15T23:50:59.824Z,93.00
2018-09-15T23:53:28.020Z,93.00
2018-09-15T23:55:56.285Z,93.00
2018-09-15T23:58:24.599Z,93.10
